createdAt,value
2019-03-22T00:00:53.858Z,88.92
2019-03-22T00:01:53.823Z,89.03
2019-03-22T00:02:57.452Z,88.82
2019-03-22T00:03:53.836Z,89.45
2019-03-22T00:04:53.832Z,89.13
2019-03-22T00:05:53.827Z,89.03
2019-03-22T00:06:53.804Z,89.34
2019-03-22T00:07:53.783Z,90.18
2019-03-22T00:08:53.764Z,90.28
2019-03-22T00:09:53.732Z,90.39
2019-03-22T00:10:53.736Z,90.08
2019-03-22T00:11:54.669Z,90.18
2019-03-22T00:12:54.255Z,89.90
2019-03-22T00:13:53.699Z,90.39
2019-03-22T00:14:53.724Z,90.81
2019-03-22T00:15:53.702Z,90.64
2019-03-22T00:16:54.239Z,90.74
2019-03-22T00:17:53.636Z,91.06
2019-03-22T00:18:53.655Z,90.64
2019-03-22T00:19:53.670Z,91.16
2019-03-22T00:20:53.632Z,90.74
2019-03-22T00:21:53.616Z,90.74
2019-03-22T00:22:53.594Z,90.64
2019-03-22T00:23:53.590Z,90.53
2019-03-22T00:24:53.575Z,90.01
2019-03-22T00:25:53.603Z,90.01
2019-03-22T00:26:53.588Z,90.43
2019-03-22T00:27:53.582Z,90.08
2019-03-22T00:28:53.523Z,90.53
2019-03-22T00:29:53.531Z,90.08
2019-03-22T00:30:53.509Z,90.11
2019-03-22T00:31:54.174Z,90.11
2019-03-22T00:32:54.170Z,90.01
2019-03-22T00:33:54.179Z,90.11
2019-03-22T00:34:53.455Z,90.43
2019-03-22T00:35:53.443Z,90.22
2019-03-22T00:36:53.433Z,90.22
2019-03-22T00:37:53.506Z,90.22
2019-03-22T00:38:53.407Z,89.80
2019-03-22T00:39:54.232Z,90.53
2019-03-22T00:40:53.395Z,90.84
2019-03-22T00:41:53.371Z,90.68
2019-03-22T00:42:53.390Z,91.06
2019-03-22T00:43:53.357Z,90.22
2019-03-22T00:44:53.362Z,90.47
2019-03-22T00:45:53.345Z,90.43
2019-03-22T00:46:53.318Z,90.33
2019-03-22T00:47:53.339Z,89.90
2019-03-22T00:48:53.332Z,90.33
2019-03-22T00:49:53.334Z,90.26
2019-03-22T00:50:53.290Z,90.16
2019-03-22T00:51:53.273Z,90.16
2019-03-22T00:52:53.264Z,90.26
2019-03-22T00:53:53.308Z,89.80
2019-03-22T00:54:53.283Z,90.58
2019-03-22T00:55:53.214Z,90.78
2019-03-22T00:56:53.211Z,90.58
2019-03-22T00:57:53.208Z,90.99
2019-03-22T00:58:53.209Z,90.78
2019-03-22T00:59:53.219Z,90.16
2019-03-22T01:00:53.186Z,91.31
2019-03-22T01:01:53.159Z,90.89
2019-03-22T01:02:53.158Z,90.58
2019-03-22T01:03:53.128Z,91.20
2019-03-22T01:04:53.674Z,91.41
2019-03-22T01:05:53.113Z,91.46
2019-03-22T01:06:53.107Z,91.66
2019-03-22T01:07:53.104Z,91.87
2019-03-22T01:08:53.118Z,91.87
2019-03-22T01:09:53.136Z,91.87
2019-03-22T01:10:53.076Z,92.08
2019-03-22T01:11:53.045Z,91.98
2019-03-22T01:12:53.054Z,92.29
2019-03-22T01:13:53.044Z,91.98
2019-03-22T01:14:53.715Z,91.72
2019-03-22T01:15:53.046Z,91.41
2019-03-22T01:16:53.045Z,91.31
2019-03-22T01:17:53.011Z,91.03
2019-03-22T01:18:52.974Z,90.93
2019-03-22T01:19:53.711Z,91.20
2019-03-22T01:20:52.962Z,90.61
2019-03-22T01:21:52.929Z,91.09
2019-03-22T01:22:52.926Z,90.61
2019-03-22T01:23:52.917Z,90.68
2019-03-22T01:24:52.905Z,90.78
2019-03-22T01:25:52.924Z,90.68
2019-03-22T01:26:52.875Z,90.68
2019-03-22T01:27:54.179Z,90.78
2019-03-22T01:28:52.937Z,90.93
2019-03-22T01:29:54.676Z,90.58
2019-03-22T01:30:52.833Z,91.14
2019-03-22T01:31:52.814Z,90.99
2019-03-22T01:32:52.812Z,91.41
2019-03-22T01:33:52.800Z,91.03
2019-03-22T01:34:53.696Z,90.72
2019-03-22T01:35:52.778Z,91.24
2019-03-22T01:36:52.769Z,91.46
2019-03-22T01:37:52.790Z,91.35
2019-03-22T01:38:52.744Z,91.24
2019-03-22T01:39:52.786Z,90.51
2019-03-22T01:40:53.677Z,90.93
2019-03-22T01:41:52.751Z,91.31
2019-03-22T01:42:52.712Z,90.89
2019-03-22T01:43:52.772Z,90.93
2019-03-22T01:44:52.689Z,90.72
2019-03-22T01:45:52.684Z,90.68
2019-03-22T01:46:52.719Z,90.58
2019-03-22T01:47:52.647Z,90.83
2019-03-22T01:48:53.177Z,90.83
2019-03-22T01:49:52.626Z,90.61
2019-03-22T01:50:52.687Z,90.83
2019-03-22T01:51:52.614Z,91.14
2019-03-22T01:52:52.604Z,91.14
2019-03-22T01:53:52.581Z,91.03
2019-03-22T01:54:52.609Z,90.93
2019-03-22T01:55:52.553Z,90.72
2019-03-22T01:56:52.549Z,91.14
2019-03-22T01:57:54.027Z,90.93
2019-03-22T01:58:52.559Z,91.35
2019-03-22T01:59:52.523Z,90.93
2019-03-22T02:00:52.551Z,90.61
2019-03-22T02:01:52.496Z,90.97
2019-03-22T02:02:52.531Z,91.14
2019-03-22T02:03:52.518Z,91.14
2019-03-22T02:04:52.500Z,90.97
2019-03-22T02:05:52.450Z,90.72
2019-03-22T02:06:52.454Z,90.93
2019-03-22T02:07:52.464Z,90.20
2019-03-22T02:08:52.423Z,90.09
2019-03-22T02:09:52.401Z,90.34
2019-03-22T02:10:53.180Z,90.34
2019-03-22T02:11:53.186Z,90.76
2019-03-22T02:12:52.371Z,91.24
2019-03-22T02:13:52.398Z,90.97
2019-03-22T02:14:52.391Z,91.28
2019-03-22T02:15:52.372Z,90.76
2019-03-22T02:16:52.363Z,91.08
2019-03-22T02:17:52.326Z,91.08
2019-03-22T02:18:52.328Z,91.18
2019-03-22T02:19:52.330Z,91.50
2019-03-22T02:20:53.214Z,92.02
2019-03-22T02:21:52.317Z,92.13
2019-03-22T02:22:52.257Z,92.02
2019-03-22T02:23:52.441Z,92.33
2019-03-22T02:24:52.281Z,92.19
2019-03-22T02:25:52.275Z,92.50
2019-03-22T02:26:53.189Z,91.98
2019-03-22T02:28:03.510Z,92.02
2019-03-22T02:28:54.197Z,92.13
2019-03-22T02:29:52.182Z,91.71
2019-03-22T02:30:52.200Z,91.98
2019-03-22T02:31:52.209Z,91.87
2019-03-22T02:32:52.730Z,91.39
2019-03-22T02:33:52.171Z,91.98
2019-03-22T02:34:52.149Z,92.08
2019-03-22T02:35:52.124Z,91.77
2019-03-22T02:36:52.140Z,91.03
2019-03-22T02:37:52.195Z,90.93
2019-03-22T02:38:52.084Z,90.55
2019-03-22T02:39:52.089Z,90.66
2019-03-22T02:40:52.094Z,90.45
2019-03-22T02:41:52.073Z,90.66
2019-03-22T02:42:52.687Z,90.13
2019-03-22T02:43:54.571Z,90.34
2019-03-22T02:44:52.019Z,90.34
2019-03-22T02:45:52.021Z,90.23
2019-03-22T02:46:52.067Z,90.45
2019-03-22T02:47:52.004Z,90.23
2019-03-22T02:48:51.972Z,90.13
2019-03-22T02:49:51.971Z,90.34
2019-03-22T02:50:51.996Z,90.45
2019-03-22T02:51:52.692Z,90.66
2019-03-22T02:52:51.929Z,90.23
2019-03-22T02:53:51.922Z,90.66
2019-03-22T02:54:51.916Z,90.17
2019-03-22T02:55:52.005Z,90.66
2019-03-22T02:56:51.897Z,90.91
2019-03-22T02:57:52.238Z,91.01
2019-03-22T02:58:51.873Z,90.91
2019-03-22T02:59:51.862Z,90.97
2019-03-22T03:00:51.886Z,90.59
2019-03-22T03:01:51.863Z,91.08
2019-03-22T03:02:51.826Z,90.66
2019-03-22T03:03:51.899Z,91.12
2019-03-22T03:04:51.825Z,91.28
2019-03-22T03:05:51.820Z,90.66
2019-03-22T03:06:51.798Z,90.80
2019-03-22T03:07:52.702Z,90.59
2019-03-22T03:08:51.766Z,90.38
2019-03-22T03:09:51.774Z,90.59
2019-03-22T03:10:51.733Z,90.49
2019-03-22T03:11:51.727Z,91.12
2019-03-22T03:12:51.755Z,91.01
2019-03-22T03:13:51.699Z,91.22
2019-03-22T03:14:52.211Z,90.91
2019-03-22T03:15:51.679Z,91.22
2019-03-22T03:16:51.675Z,90.70
2019-03-22T03:17:51.647Z,91.12
2019-03-22T03:18:51.652Z,91.33
2019-03-22T03:19:51.629Z,91.53
2019-03-22T03:20:51.625Z,91.53
2019-03-22T03:21:51.619Z,91.12
2019-03-22T03:22:51.627Z,90.59
2019-03-22T03:23:51.603Z,90.49
2019-03-22T03:24:51.607Z,90.80
2019-03-22T03:25:51.656Z,90.80
2019-03-22T03:26:51.555Z,91.01
2019-03-22T03:27:51.543Z,90.91
2019-03-22T03:28:51.552Z,90.80
2019-03-22T03:29:51.524Z,91.22
2019-03-22T03:30:51.537Z,91.43
2019-03-22T03:31:51.497Z,91.64
2019-03-22T03:32:51.500Z,91.64
2019-03-22T03:33:51.492Z,91.85
2019-03-22T03:34:51.500Z,91.64
2019-03-22T03:35:51.476Z,91.64
2019-03-22T03:36:51.453Z,91.53
2019-03-22T03:37:51.439Z,90.91
2019-03-22T03:38:51.440Z,90.91
2019-03-22T03:39:52.225Z,91.01
2019-03-22T03:40:51.399Z,90.59
2019-03-22T03:41:51.397Z,90.70
2019-03-22T03:42:51.378Z,90.91
2019-03-22T03:43:52.209Z,90.17
2019-03-22T03:44:51.478Z,90.07
2019-03-22T03:45:51.343Z,90.49
2019-03-22T03:46:51.484Z,90.38
2019-03-22T03:47:51.346Z,90.38
2019-03-22T03:48:51.305Z,90.38
2019-03-22T03:49:51.322Z,90.07
2019-03-22T03:50:51.318Z,90.07
2019-03-22T03:51:51.317Z,90.07
2019-03-22T03:52:51.279Z,89.44
2019-03-22T03:53:51.274Z,89.54
2019-03-22T03:54:51.244Z,90.07
2019-03-22T03:55:51.390Z,89.65
2019-03-22T03:56:51.238Z,89.97
2019-03-22T03:57:51.226Z,90.22
2019-03-22T03:58:52.935Z,90.00
2019-03-22T03:59:51.190Z,90.07
2019-03-22T04:00:51.170Z,90.70
2019-03-22T04:01:51.176Z,90.53
2019-03-22T04:02:51.163Z,90.32
2019-03-22T04:03:51.150Z,90.74
2019-03-22T04:04:51.162Z,90.84
2019-03-22T04:05:51.135Z,91.05
2019-03-22T04:06:51.114Z,90.95
2019-03-22T04:07:51.097Z,90.74
2019-03-22T04:08:51.106Z,91.27
2019-03-22T04:09:52.202Z,91.16
2019-03-22T04:10:51.088Z,91.37
2019-03-22T04:11:51.115Z,91.27
2019-03-22T04:12:51.037Z,90.74
2019-03-22T04:13:51.038Z,90.59
2019-03-22T04:14:51.028Z,91.37
2019-03-22T04:15:51.013Z,91.33
2019-03-22T04:16:50.995Z,91.05
2019-03-22T04:17:50.996Z,91.05
2019-03-22T04:18:50.990Z,90.64
2019-03-22T04:19:50.972Z,90.11
2019-03-22T04:20:51.008Z,89.90
2019-03-22T04:21:50.944Z,90.53
2019-03-22T04:22:50.996Z,90.32
2019-03-22T04:23:50.941Z,90.70
2019-03-22T04:24:50.909Z,90.95
2019-03-22T04:25:51.705Z,90.32
2019-03-22T04:26:50.910Z,90.64
2019-03-22T04:27:50.903Z,90.74
2019-03-22T04:28:50.871Z,90.74
2019-03-22T04:29:50.887Z,90.84
2019-03-22T04:30:50.840Z,90.84
2019-03-22T04:31:50.849Z,91.27
2019-03-22T04:32:50.843Z,91.27
2019-03-22T04:33:50.862Z,90.84
2019-03-22T04:34:50.802Z,90.95
2019-03-22T04:35:50.789Z,90.84
2019-03-22T04:36:51.702Z,90.74
2019-03-22T04:37:50.773Z,90.11
2019-03-22T04:38:50.757Z,90.22
2019-03-22T04:39:50.760Z,90.32
2019-03-22T04:40:50.730Z,89.59
2019-03-22T04:41:50.769Z,90.25
2019-03-22T04:42:50.759Z,90.22
2019-03-22T04:43:50.716Z,90.57
2019-03-22T04:44:50.691Z,90.53
2019-03-22T04:45:50.685Z,90.57
2019-03-22T04:46:50.672Z,90.22
2019-03-22T04:47:50.660Z,90.22
2019-03-22T04:48:50.673Z,90.32
2019-03-22T04:49:50.667Z,90.64
2019-03-22T04:50:50.674Z,90.11
2019-03-22T04:51:50.618Z,90.32
2019-03-22T04:52:50.619Z,90.11
2019-03-22T04:53:50.636Z,90.42
2019-03-22T04:54:50.588Z,90.42
2019-03-22T04:55:50.583Z,90.32
2019-03-22T04:56:50.607Z,90.32
2019-03-22T04:57:50.554Z,90.00
2019-03-22T04:58:50.591Z,89.62
2019-03-22T04:59:50.541Z,89.31
2019-03-22T05:00:50.511Z,89.17
2019-03-22T05:01:50.513Z,89.31
2019-03-22T05:02:50.555Z,89.21
2019-03-22T05:03:50.496Z,89.37
2019-03-22T05:04:51.204Z,89.27
2019-03-22T05:05:50.488Z,89.69
2019-03-22T05:06:50.526Z,89.21
2019-03-22T05:07:50.433Z,89.10
2019-03-22T05:08:50.431Z,89.52
2019-03-22T05:09:51.253Z,90.15
2019-03-22T05:10:50.451Z,90.25
2019-03-22T05:11:50.411Z,90.25
2019-03-22T05:12:50.421Z,90.25
2019-03-22T05:13:50.365Z,90.67
2019-03-22T05:14:50.367Z,90.36
2019-03-22T05:15:50.369Z,90.67
2019-03-22T05:16:50.402Z,90.36
2019-03-22T05:17:51.201Z,90.15
2019-03-22T05:18:50.324Z,90.99
2019-03-22T05:19:50.316Z,91.09
2019-03-22T05:20:50.336Z,90.47
2019-03-22T05:21:51.230Z,90.47
2019-03-22T05:22:50.308Z,90.47
2019-03-22T05:23:51.201Z,90.67
2019-03-22T05:24:50.297Z,90.05
2019-03-22T05:25:50.242Z,90.47
2019-03-22T05:26:50.252Z,90.25
2019-03-22T05:27:50.227Z,90.15
2019-03-22T05:28:50.205Z,90.57
2019-03-22T05:29:50.227Z,90.15
2019-03-22T05:30:50.182Z,90.36
2019-03-22T05:31:50.186Z,90.47
2019-03-22T05:32:50.193Z,90.57
2019-03-22T05:33:50.169Z,90.36
2019-03-22T05:34:50.159Z,90.15
2019-03-22T05:35:50.158Z,89.94
2019-03-22T05:36:50.137Z,90.15
2019-03-22T05:37:50.134Z,90.36
2019-03-22T05:38:50.093Z,90.47
2019-03-22T05:39:50.090Z,90.47
2019-03-22T05:40:50.111Z,90.57
2019-03-22T05:41:50.085Z,90.47
2019-03-22T05:42:50.055Z,89.94
2019-03-22T05:43:50.090Z,90.22
2019-03-22T05:44:50.081Z,90.32
2019-03-22T05:45:50.167Z,90.22
2019-03-22T05:46:50.044Z,90.42
2019-03-22T05:47:50.041Z,90.42
2019-03-22T05:48:50.104Z,90.11
2019-03-22T05:49:50.031Z,89.37
2019-03-22T05:50:50.092Z,89.69
2019-03-22T05:51:49.970Z,89.48
2019-03-22T05:52:52.642Z,90.42
2019-03-22T05:53:51.211Z,90.53
2019-03-22T05:54:51.215Z,90.53
2019-03-22T05:55:49.966Z,90.32
2019-03-22T05:56:50.024Z,90.22
2019-03-22T05:57:49.983Z,90.17
2019-03-22T05:58:49.885Z,90.07
2019-03-22T05:59:49.898Z,90.49
2019-03-22T06:00:49.863Z,90.49
2019-03-22T06:01:49.848Z,90.59
2019-03-22T06:02:49.884Z,90.07
2019-03-22T06:03:49.850Z,89.65
2019-03-22T06:04:50.740Z,89.44
2019-03-22T06:05:49.794Z,89.65
2019-03-22T06:06:50.712Z,89.02
2019-03-22T06:07:49.794Z,89.75
2019-03-22T06:08:49.822Z,89.75
2019-03-22T06:09:49.755Z,89.19
2019-03-22T06:10:49.749Z,89.40
2019-03-22T06:11:49.756Z,89.19
2019-03-22T06:12:49.761Z,89.29
2019-03-22T06:13:49.728Z,89.50
2019-03-22T06:14:49.701Z,89.72
2019-03-22T06:15:49.713Z,89.36
2019-03-22T06:16:49.699Z,89.98
2019-03-22T06:17:51.828Z,89.42
2019-03-22T06:18:50.557Z,89.15
2019-03-22T06:19:50.211Z,89.32
2019-03-22T06:20:49.642Z,89.53
2019-03-22T06:21:49.625Z,88.96
2019-03-22T06:22:49.627Z,89.00
2019-03-22T06:23:49.611Z,89.11
2019-03-22T06:24:49.698Z,89.59
2019-03-22T06:25:49.594Z,88.34
2019-03-22T06:26:49.618Z,87.98
2019-03-22T06:27:49.556Z,87.56
2019-03-22T06:28:49.664Z,87.77
2019-03-22T06:29:54.224Z,87.77
2019-03-22T06:30:50.535Z,88.09
2019-03-22T06:31:49.514Z,87.10
2019-03-22T06:32:49.521Z,87.10
2019-03-22T06:33:49.486Z,86.37
2019-03-22T06:34:49.529Z,86.58
2019-03-22T06:35:49.489Z,86.85
2019-03-22T06:36:49.474Z,86.54
2019-03-22T06:37:49.487Z,86.54
2019-03-22T06:38:49.464Z,85.88
2019-03-22T06:39:49.432Z,86.19
2019-03-22T06:40:49.523Z,86.08
2019-03-22T06:41:49.411Z,86.61
2019-03-22T06:42:49.388Z,87.96
2019-03-22T06:43:49.433Z,87.71
2019-03-22T06:44:49.372Z,85.73
2019-03-22T06:45:49.359Z,86.25
2019-03-22T06:46:49.368Z,86.05
2019-03-22T06:47:49.345Z,86.05
2019-03-22T06:48:49.343Z,85.59
2019-03-22T06:49:49.351Z,84.86
2019-03-22T06:50:49.315Z,83.50
2019-03-22T06:51:49.298Z,83.61
2019-03-22T06:52:51.954Z,83.40
2019-03-22T06:53:49.272Z,83.98
2019-03-22T06:54:49.283Z,83.32
2019-03-22T06:55:49.286Z,82.70
2019-03-22T06:56:49.239Z,82.90
2019-03-22T06:57:49.255Z,81.09
2019-03-22T06:58:49.263Z,81.41
2019-03-22T06:59:49.259Z,80.88
2019-03-22T07:00:49.203Z,80.33
2019-03-22T07:01:49.213Z,81.26
2019-03-22T07:02:49.219Z,80.85
2019-03-22T07:03:49.164Z,80.22
2019-03-22T07:04:49.148Z,79.66
2019-03-22T07:05:49.136Z,78.31
2019-03-22T07:06:49.191Z,77.79
2019-03-22T07:07:49.152Z,77.96
2019-03-22T07:08:49.135Z,77.55
2019-03-22T07:09:49.119Z,77.13
2019-03-22T07:10:49.183Z,77.03
2019-03-22T07:11:49.138Z,77.20
2019-03-22T07:12:49.093Z,76.78
2019-03-22T07:13:49.047Z,76.16
2019-03-22T07:14:49.052Z,75.19
2019-03-22T07:15:49.738Z,76.43
2019-03-22T07:16:49.022Z,75.26
2019-03-22T07:17:49.051Z,75.09
2019-03-22T07:18:49.117Z,74.32
2019-03-22T07:19:48.981Z,75.05
2019-03-22T07:20:49.019Z,75.64
2019-03-22T07:21:48.972Z,75.95
2019-03-22T07:22:48.994Z,74.39
2019-03-22T07:23:48.972Z,73.35
2019-03-22T07:24:48.955Z,72.80
2019-03-22T07:25:48.915Z,73.22
2019-03-22T07:26:48.922Z,74.01
2019-03-22T07:27:48.905Z,74.43
2019-03-22T07:28:48.940Z,72.63
2019-03-22T07:29:48.885Z,72.74
2019-03-22T07:30:48.918Z,73.43
2019-03-22T07:31:48.876Z,73.01
2019-03-22T07:32:48.853Z,72.08
2019-03-22T07:33:48.846Z,71.87
2019-03-22T07:34:48.867Z,71.94
2019-03-22T07:35:48.845Z,72.56
2019-03-22T07:36:48.851Z,71.28
2019-03-22T07:37:48.816Z,70.97
2019-03-22T07:38:48.792Z,69.21
2019-03-22T07:39:48.784Z,69.29
2019-03-22T07:40:48.792Z,67.63
2019-03-22T07:41:49.280Z,65.22
2019-03-22T07:42:48.749Z,62.18
2019-03-22T07:43:48.729Z,62.98
2019-03-22T07:44:48.747Z,59.64
2019-03-22T07:45:48.705Z,60.55
2019-03-22T07:46:48.755Z,58.15
2019-03-22T07:47:48.697Z,58.87
2019-03-22T07:48:48.721Z,55.98
2019-03-22T07:49:48.661Z,58.01
2019-03-22T07:50:48.643Z,55.93
2019-03-22T07:51:48.633Z,56.03
2019-03-22T07:52:48.650Z,56.00
2019-03-22T07:53:48.627Z,54.56
2019-03-22T07:54:48.633Z,54.56
2019-03-22T07:55:48.623Z,54.14
2019-03-22T07:56:48.582Z,54.35
2019-03-22T07:57:48.561Z,53.42
2019-03-22T07:58:48.561Z,54.33
2019-03-22T07:59:48.627Z,53.09
2019-03-22T08:00:48.539Z,54.84
2019-03-22T08:01:48.517Z,55.87
2019-03-22T08:02:48.511Z,53.91
2019-03-22T08:03:48.535Z,53.61
2019-03-22T08:04:48.481Z,52.96
2019-03-22T08:05:51.478Z,53.27
2019-03-22T08:06:48.526Z,53.27
2019-03-22T08:07:48.502Z,53.04
2019-03-22T08:08:48.473Z,53.25
2019-03-22T08:09:51.151Z,52.66
2019-03-22T08:10:48.471Z,53.14
2019-03-22T08:11:48.492Z,54.90
2019-03-22T08:12:48.415Z,53.35
2019-03-22T08:13:48.416Z,53.22
2019-03-22T08:14:48.439Z,54.15
2019-03-22T08:15:48.393Z,55.07
2019-03-22T08:16:48.397Z,53.12
2019-03-22T08:17:48.338Z,53.74
2019-03-22T08:18:48.449Z,55.07
2019-03-22T08:19:48.338Z,54.66
2019-03-22T08:20:48.346Z,55.07
2019-03-22T08:21:48.316Z,55.28
2019-03-22T08:22:48.299Z,53.84
2019-03-22T08:23:48.296Z,54.05
2019-03-22T08:24:48.547Z,53.53
2019-03-22T08:25:48.348Z,51.86
2019-03-22T08:26:48.306Z,51.76
2019-03-22T08:27:48.273Z,50.93
2019-03-22T08:28:48.224Z,52.78
2019-03-22T08:29:48.260Z,52.04
2019-03-22T08:30:48.210Z,51.63
2019-03-22T08:31:48.189Z,51.42
2019-03-22T08:32:50.325Z,49.68
2019-03-22T08:33:48.166Z,49.78
2019-03-22T08:34:48.219Z,49.76
2019-03-22T08:35:48.158Z,49.78
2019-03-22T08:36:48.131Z,49.44
2019-03-22T08:37:52.798Z,48.93
2019-03-22T08:38:48.151Z,49.24
2019-03-22T08:39:48.115Z,48.21
2019-03-22T08:40:48.121Z,49.55
2019-03-22T08:41:48.110Z,48.72
2019-03-22T08:42:48.082Z,50.06
2019-03-22T08:43:48.097Z,48.09
2019-03-22T08:44:48.063Z,48.81
2019-03-22T08:45:48.080Z,48.50
2019-03-22T08:46:48.097Z,49.84
2019-03-22T08:47:48.075Z,48.89
2019-03-22T08:48:48.046Z,48.58
2019-03-22T08:49:48.172Z,48.17
2019-03-22T08:50:48.016Z,46.53
2019-03-22T08:51:49.612Z,47.45
2019-03-22T08:52:47.986Z,47.66
2019-03-22T08:53:55.225Z,47.22
2019-03-22T08:54:48.996Z,48.17
2019-03-22T08:55:47.922Z,46.61
2019-03-22T08:56:47.950Z,47.45
2019-03-22T08:57:47.911Z,46.71
2019-03-22T08:58:47.907Z,47.33
2019-03-22T08:59:47.892Z,47.63
2019-03-22T09:00:57.556Z,48.13
2019-03-22T09:01:48.873Z,46.69
2019-03-22T09:02:49.703Z,46.81
2019-03-22T09:03:47.840Z,46.40
2019-03-22T09:04:47.857Z,46.48
2019-03-22T09:05:47.912Z,48.74
2019-03-22T09:06:47.820Z,49.15
2019-03-22T09:07:47.806Z,46.69
2019-03-22T09:08:48.099Z,48.02
2019-03-22T09:09:47.831Z,48.54
2019-03-22T09:10:47.820Z,46.58
2019-03-22T09:11:47.802Z,46.38
2019-03-22T09:12:47.740Z,48.22
2019-03-22T09:13:47.753Z,45.95
2019-03-22T09:14:47.705Z,46.87
2019-03-22T09:15:47.721Z,45.95
2019-03-22T09:16:47.736Z,46.28
2019-03-22T09:17:47.696Z,45.95
2019-03-22T09:18:47.677Z,43.90
2019-03-22T09:19:47.669Z,45.54
2019-03-22T09:20:47.698Z,45.74
2019-03-22T09:21:47.644Z,44.20
2019-03-22T09:22:47.643Z,43.37
2019-03-22T09:23:47.636Z,43.57
2019-03-22T09:24:47.618Z,43.98
2019-03-22T09:25:47.611Z,44.37
2019-03-22T09:26:48.164Z,42.11
2019-03-22T09:27:47.582Z,43.85
2019-03-22T09:28:47.564Z,44.14
2019-03-22T09:29:47.622Z,43.53
2019-03-22T09:30:47.526Z,44.65
2019-03-22T09:31:47.568Z,43.12
2019-03-22T09:32:47.553Z,43.51
2019-03-22T09:33:47.502Z,42.28
2019-03-22T09:34:47.641Z,43.61
2019-03-22T09:35:47.494Z,42.38
2019-03-22T09:36:47.498Z,43.59
2019-03-22T09:37:47.527Z,41.95
2019-03-22T09:38:47.447Z,41.85
2019-03-22T09:39:47.447Z,41.95
2019-03-22T09:40:47.473Z,41.75
2019-03-22T09:41:47.438Z,42.05
2019-03-22T09:42:48.024Z,42.97
2019-03-22T09:43:47.392Z,43.28
2019-03-22T09:44:47.402Z,42.03
2019-03-22T09:45:47.408Z,42.55
2019-03-22T09:46:47.399Z,42.03
2019-03-22T09:47:47.373Z,42.22
2019-03-22T09:48:47.335Z,42.55
2019-03-22T09:49:47.396Z,42.44
2019-03-22T09:50:47.307Z,42.02
2019-03-22T09:51:47.296Z,41.91
2019-03-22T09:52:47.310Z,41.81
2019-03-22T09:53:47.332Z,41.71
2019-03-22T09:54:47.301Z,42.30
2019-03-22T09:55:47.276Z,39.54
2019-03-22T09:56:47.665Z,41.18
2019-03-22T09:57:49.458Z,39.44
2019-03-22T09:58:47.234Z,41.18
2019-03-22T09:59:47.227Z,40.87
2019-03-22T10:00:48.648Z,40.75
2019-03-22T10:01:47.215Z,41.36
2019-03-22T10:02:47.228Z,41.49
2019-03-22T10:03:47.168Z,41.67
2019-03-22T10:04:47.268Z,39.22
2019-03-22T10:05:47.188Z,40.24
2019-03-22T10:06:47.172Z,40.94
2019-03-22T10:07:49.980Z,39.51
2019-03-22T10:08:47.137Z,39.00
2019-03-22T10:09:47.101Z,39.71
2019-03-22T10:10:47.100Z,40.32
2019-03-22T10:11:47.077Z,39.51
2019-03-22T10:12:47.071Z,39.00
2019-03-22T10:13:48.466Z,39.71
2019-03-22T10:14:47.846Z,39.81
2019-03-22T10:15:47.065Z,38.69
2019-03-22T10:16:47.717Z,41.12
2019-03-22T10:17:47.037Z,40.83
2019-03-22T10:18:47.032Z,42.65
2019-03-22T10:19:46.996Z,41.63
2019-03-22T10:20:46.988Z,41.53
2019-03-22T10:21:47.036Z,41.12
2019-03-22T10:22:46.995Z,39.49
2019-03-22T10:23:47.747Z,41.00
2019-03-22T10:24:47.002Z,41.41
2019-03-22T10:25:46.950Z,38.65
2019-03-22T10:26:46.899Z,38.06
2019-03-22T10:27:46.915Z,38.24
2019-03-22T10:28:46.953Z,38.76
2019-03-22T10:29:46.934Z,38.55
2019-03-22T10:30:46.924Z,38.33
2019-03-22T10:31:46.889Z,38.43
2019-03-22T10:32:46.863Z,37.82
2019-03-22T10:33:46.835Z,37.10
2019-03-22T10:34:46.855Z,37.21
2019-03-22T10:35:46.838Z,38.02
2019-03-22T10:36:46.795Z,38.43
2019-03-22T10:37:46.818Z,38.02
2019-03-22T10:38:46.935Z,37.51
2019-03-22T10:39:46.803Z,38.84
2019-03-22T10:40:46.770Z,39.25
2019-03-22T10:41:46.793Z,38.94
2019-03-22T10:42:46.833Z,40.55
2019-03-22T10:43:46.727Z,38.31
2019-03-22T10:44:46.707Z,38.62
2019-03-22T10:45:46.699Z,38.62
2019-03-22T10:46:46.775Z,39.11
2019-03-22T10:47:46.775Z,38.60
2019-03-22T10:48:46.664Z,39.01
2019-03-22T10:49:46.684Z,38.89
2019-03-22T10:50:46.661Z,38.38
2019-03-22T10:51:56.958Z,38.89
2019-03-22T10:52:48.402Z,39.09
2019-03-22T10:53:46.620Z,38.26
2019-03-22T10:54:46.606Z,39.28
2019-03-22T10:55:46.608Z,38.06
2019-03-22T10:56:46.568Z,38.67
2019-03-22T10:57:46.593Z,38.67
2019-03-22T10:58:46.557Z,37.95
2019-03-22T10:59:47.289Z,39.28
2019-03-22T11:00:46.518Z,38.97
2019-03-22T11:01:57.709Z,38.46
2019-03-22T11:02:47.568Z,38.76
2019-03-22T11:03:46.632Z,39.07
2019-03-22T11:04:46.496Z,38.87
2019-03-22T11:05:46.465Z,38.54
2019-03-22T11:06:46.455Z,38.14
2019-03-22T11:07:46.445Z,38.65
2019-03-22T11:08:46.480Z,38.14
2019-03-22T11:09:46.420Z,38.56
2019-03-22T11:10:46.410Z,39.15
2019-03-22T11:11:46.414Z,38.87
2019-03-22T11:12:46.417Z,38.34
2019-03-22T11:13:46.399Z,38.76
2019-03-22T11:14:47.306Z,39.38
2019-03-22T11:15:48.640Z,39.26
2019-03-22T11:16:46.396Z,38.76
2019-03-22T11:17:46.339Z,39.46
2019-03-22T11:18:47.262Z,38.56
2019-03-22T11:19:46.320Z,38.76
2019-03-22T11:20:46.308Z,40.58
2019-03-22T11:21:46.294Z,39.15
2019-03-22T11:22:46.287Z,40.27
2019-03-22T11:23:46.272Z,38.73
2019-03-22T11:24:46.280Z,38.73
2019-03-22T11:25:46.245Z,38.73
2019-03-22T11:26:46.235Z,38.73
2019-03-22T11:27:46.215Z,38.93
2019-03-22T11:28:46.214Z,38.93
2019-03-22T11:29:46.197Z,40.97
2019-03-22T11:30:46.196Z,40.16
2019-03-22T11:31:46.170Z,39.62
2019-03-22T11:32:46.168Z,39.83
2019-03-22T11:33:46.167Z,37.70
2019-03-22T11:34:46.148Z,37.59
2019-03-22T11:35:46.162Z,38.20
2019-03-22T11:36:46.137Z,38.49
2019-03-22T11:37:46.119Z,39.40
2019-03-22T11:38:46.109Z,38.59
2019-03-22T11:39:46.133Z,39.10
2019-03-22T11:40:47.007Z,37.88
2019-03-22T11:41:46.086Z,39.10
2019-03-22T11:42:46.059Z,38.41
2019-03-22T11:43:46.047Z,39.40
2019-03-22T11:44:46.125Z,38.88
2019-03-22T11:45:46.182Z,39.49
2019-03-22T11:46:46.009Z,40.09
2019-03-22T11:47:46.024Z,38.96
2019-03-22T11:48:46.032Z,39.78
2019-03-22T11:49:45.995Z,39.98
2019-03-22T11:50:45.986Z,39.26
2019-03-22T11:51:45.971Z,40.38
2019-03-22T11:52:45.941Z,38.34
2019-03-22T11:53:45.932Z,38.54
2019-03-22T11:54:45.929Z,38.64
2019-03-22T11:55:45.947Z,38.96
2019-03-22T11:56:45.913Z,39.25
2019-03-22T11:57:47.923Z,39.06
2019-03-22T11:58:45.867Z,39.65
2019-03-22T11:59:45.866Z,39.75
2019-03-22T12:00:45.869Z,39.15
2019-03-22T12:01:45.865Z,40.26
2019-03-22T12:02:45.834Z,39.04
2019-03-22T12:03:45.825Z,39.25
2019-03-22T12:04:45.832Z,38.95
2019-03-22T12:05:45.793Z,39.96
2019-03-22T12:06:45.813Z,39.55
2019-03-22T12:07:45.821Z,39.35
2019-03-22T12:08:45.768Z,38.93
2019-03-22T12:09:45.747Z,39.25
2019-03-22T12:10:45.737Z,38.43
2019-03-22T12:11:45.729Z,40.16
2019-03-22T12:12:45.755Z,40.26
2019-03-22T12:13:45.705Z,39.04
2019-03-22T12:14:45.694Z,40.77
2019-03-22T12:15:45.692Z,39.86
2019-03-22T12:16:45.708Z,40.56
2019-03-22T12:17:45.663Z,39.65
2019-03-22T12:18:45.673Z,38.74
2019-03-22T12:19:45.657Z,39.04
2019-03-22T12:20:45.637Z,39.45
2019-03-22T12:21:45.611Z,38.95
2019-03-22T12:22:45.601Z,39.53
2019-03-22T12:23:45.632Z,40.55
2019-03-22T12:24:45.598Z,38.81
2019-03-22T12:25:45.595Z,39.72
2019-03-22T12:26:45.565Z,38.40
2019-03-22T12:27:45.547Z,38.52
2019-03-22T12:28:45.555Z,38.32
2019-03-22T12:29:45.539Z,37.91
2019-03-22T12:30:45.562Z,39.23
2019-03-22T12:31:45.505Z,39.13
2019-03-22T12:32:45.495Z,39.43
2019-03-22T12:33:45.477Z,38.21
2019-03-22T12:34:45.486Z,38.72
2019-03-22T12:35:45.455Z,37.91
2019-03-22T12:36:45.445Z,38.62
2019-03-22T12:37:45.455Z,38.81
2019-03-22T12:38:45.421Z,38.81
2019-03-22T12:39:45.422Z,39.42
2019-03-22T12:40:45.403Z,38.60
2019-03-22T12:41:45.415Z,38.81
2019-03-22T12:42:45.380Z,38.60
2019-03-22T12:43:45.396Z,38.81
2019-03-22T12:44:45.357Z,38.20
2019-03-22T12:45:45.349Z,39.42
2019-03-22T12:46:45.348Z,38.70
2019-03-22T12:47:45.339Z,39.62
2019-03-22T12:48:45.313Z,38.60
2019-03-22T12:49:45.327Z,38.89
2019-03-22T12:50:45.297Z,39.09
2019-03-22T12:51:45.294Z,39.78
2019-03-22T12:52:45.362Z,39.60